Time,TemperatureF,DewpointF,PressureIn,WindDirection,WindDirectionDegrees,WindSpeedMPH,WindSpeedGustMPH,Humidity,HourlyPrecipIn,Conditions,Clouds,dailyrainin,SoftwareType,DateUTC
2013-05-13 00:00:00,50.5,30.0,29.90,WSW,241,1.0,6.0,45,0.00,,,0.02,weatherlink.com 1.10,2013-05-13 04:00:00,
2013-05-13 00:15:00,50.0,30.0,29.90,WNW,292,1.0,5.0,46,0.00,,,0.00,weatherlink.com 1.10,2013-05-13 04:15:00,
2013-05-13 00:30:00,49.6,30.0,29.91,West,278,2.0,7.0,48,0.00,,,0.00,weatherlink.com 1.10,2013-05-13 04:30:00,
2013-05-13 00:45:00,49.1,30.0,29.91,West,281,1.0,6.0,49,0.00,,,0.00,weatherlink.com 1.10,2013-05-13 04:45:00,
2013-05-13 01:01:00,48.8,31.0,29.91,West,281,3.0,6.0,50,0.00,,,0.00,weatherlink.com 1.10,2013-05-13 05:01:00,
2013-05-13 01:16:00,48.4,31.0,29.92,WNW,294,0.0,4.0,51,0.00,,,0.00,weatherlink.com 1.10,2013-05-13 05:16:00,
2013-05-13 01:31:00,48.1,31.0,29.92,West,269,1.0,4.0,52,0.00,,,0.00,weatherlink.com 1.10,2013-05-13 05:31:00,
2013-05-13 01:46:00,47.8,31.0,29.91,NNW,342,2.0,3.0,52,0.00,,,0.00,weatherlink.com 1.10,2013-05-13 05:46:00,
2013-05-13 02:01:00,47.7,32.0,29.91,West,277,0.0,4.0,54,0.00,,,0.00,weatherlink.com 1.10,2013-05-13 06:01:00,
2013-05-13 02:16:00,47.3,31.0,29.91,West,264,0.0,7.0,54,0.00,,,0.00,weatherlink.com 1.10,2013-05-13 06:16:00,
2013-05-13 02:31:00,46.8,32.0,29.91,West,262,0.0,2.0,57,0.00,,,0.00,weatherlink.com 1.10,2013-05-13 06:31:00,
2013-05-13 02:46:00,46.3,32.0,29.92,West,262,0.0,2.0,59,0.00,,,0.00,weatherlink.com 1.10,2013-05-13 06:46:00,
2013-05-13 03:01:00,45.7,32.0,29.92,West,277,2.0,2.0,60,0.00,,,0.00,weatherlink.com 1.10,2013-05-13 07:01:00,
2013-05-13 03:16:00,45.2,33.0,29.92,West,275,0.0,2.0,63,0.00,,,0.00,weatherlink.com 1.10,2013-05-13 07:16:00,
2013-05-13 03:31:00,44.8,33.0,29.92,West,275,0.0,0.0,64,0.00,,,0.00,weatherlink.com 1.10,2013-05-13 07:31:00,
2013-05-13 03:46:00,44.4,33.0,29.92,West,275,0.0,1.0,65,0.00,,,0.00,weatherlink.com 1.10,2013-05-13 07:46:00,
2013-05-13 04:01:00,44.4,33.0,29.93,WNW,285,0.0,4.0,65,0.00,,,0.00,weatherlink.com 1.10,2013-05-13 08:01:00,
2013-05-13 04:16:00,44.2,33.0,29.93,WNW,285,0.0,2.0,66,0.00,,,0.00,weatherlink.com 1.10,2013-05-13 08:16:00,
2013-05-13 04:31:00,43.7,33.0,29.93,WNW,283,0.0,2.0,67,0.00,,,0.00,weatherlink.com 1.10,2013-05-13 08:31:00,
2013-05-13 04:46:00,43.4,34.0,29.94,WNW,292,0.0,1.0,69,0.00,,,0.00,weatherlink.com 1.10,2013-05-13 08:46:00,
2013-05-13 05:01:00,43.0,34.0,29.94,WNW,292,0.0,0.0,70,0.00,,,0.00,weatherlink.com 1.10,2013-05-13 09:01:00,
2013-05-13 05:16:00,42.5,34.0,29.95,WNW,292,0.0,0.0,71,0.00,,,0.00,weatherlink.com 1.10,2013-05-13 09:16:00,
2013-05-13 05:31:00,42.1,34.0,29.95,WNW,292,0.0,0.0,72,0.00,,,0.00,weatherlink.com 1.10,2013-05-13 09:31:00,
2013-05-13 05:46:00,41.7,34.0,29.96,WNW,292,0.0,1.0,73,0.00,,,0.00,weatherlink.com 1.10,2013-05-13 09:46:00,
2013-05-13 06:01:00,41.5,34.0,29.96,WNW,292,0.0,0.0,75,0.00,,,0.00,weatherlink.com 1.10,2013-05-13 10:01:00,
2013-05-13 06:16:00,41.4,34.0,29.96,WNW,292,0.0,1.0,76,0.00,,,0.00,weatherlink.com 1.10,2013-05-13 10:16:00,
2013-05-13 06:31:00,42.0,35.0,29.96,WNW,292,0.0,4.0,75,0.00,,,0.00,weatherlink.com 1.10,2013-05-13 10:31:00,
2013-05-13 06:46:00,42.8,35.0,29.96,West,277,0.0,2.0,73,0.00,,,0.00,weatherlink.com 1.10,2013-05-13 10:46:00,
2013-05-13 07:01:00,43.7,35.0,29.97,WNW,288,1.0,4.0,72,0.00,,,0.00,weatherlink.com 1.10,2013-05-13 11:01:00,
2013-05-13 07:16:00,44.7,35.0,29.98,WNW,284,0.0,6.0,68,0.00,,,0.00,weatherlink.com 1.10,2013-05-13 11:16:00,
2013-05-13 07:31:00,45.8,35.0,29.98,WSW,246,0.0,5.0,66,0.00,,,0.00,weatherlink.com 1.10,2013-05-13 11:31:00,
2013-05-13 07:46:00,47.0,36.0,29.98,West,281,0.0,2.0,65,0.00,,,0.00,weatherlink.com 1.10,2013-05-13 11:46:00,
2013-05-13 08:01:00,48.3,35.0,29.99,WNW,286,0.0,5.0,61,0.00,,,0.00,weatherlink.com 1.10,2013-05-13 12:01:00,
2013-05-13 08:17:00,50.0,33.0,29.99,West,265,6.0,9.0,53,0.00,,,0.00,weatherlink.com 1.10,2013-05-13 12:17:00,
2013-05-13 08:32:00,51.0,34.0,30.00,NNW,334,0.0,5.0,53,0.00,,,0.00,weatherlink.com 1.10,2013-05-13 12:32:00,
2013-05-13 08:47:00,52.0,33.0,30.00,WNW,283,2.0,8.0,49,0.00,,,0.00,weatherlink.com 1.10,2013-05-13 12:47:00,
2013-05-13 09:02:00,52.0,33.0,30.00,SW,227,1.0,14.0,49,0.00,,,0.00,weatherlink.com 1.10,2013-05-13 13:02:00,
2013-05-13 09:17:00,52.7,32.0,30.00,West,261,2.0,9.0,46,0.00,,,0.00,weatherlink.com 1.10,2013-05-13 13:17:00,
2013-05-13 09:32:00,53.0,32.0,30.00,West,277,2.0,11.0,45,0.00,,,0.00,weatherlink.com 1.10,2013-05-13 13:32:00,
2013-05-13 09:47:00,52.7,33.0,30.00,SW,228,3.0,16.0,47,0.00,,,0.00,weatherlink.com 1.10,2013-05-13 13:47:00,
2013-05-13 10:02:00,53.8,32.0,30.00,WSW,254,2.0,13.0,44,0.00,,,0.00,weatherlink.com 1.10,2013-05-13 14:02:00,
2013-05-13 10:17:00,53.3,32.0,30.00,WSW,256,0.0,10.0,44,0.00,,,0.00,weatherlink.com 1.10,2013-05-13 14:17:00,
2013-05-13 10:32:00,54.2,32.0,29.99,West,274,0.0,8.0,43,0.00,,,0.00,weatherlink.com 1.10,2013-05-13 14:32:00,
2013-05-13 10:47:00,53.3,31.0,30.00,West,269,2.0,9.0,43,0.00,,,0.00,weatherlink.com 1.10,2013-05-13 14:47:00,
2013-05-13 11:02:00,54.6,32.0,30.00,SW,234,2.0,5.0,43,0.00,,,0.00,weatherlink.com 1.10,2013-05-13 15:02:00,
2013-05-13 11:17:00,54.7,32.0,30.00,WSW,240,1.0,11.0,42,0.00,,,0.00,weatherlink.com 1.10,2013-05-13 15:17:00,
2013-05-13 11:32:00,54.4,32.0,30.00,West,265,6.0,12.0,42,0.00,,,0.00,weatherlink.com 1.10,2013-05-13 15:32:00,
2013-05-13 11:47:00,54.4,30.0,30.00,WSW,254,5.0,14.0,40,0.01,,,0.01,weatherlink.com 1.10,2013-05-13 15:47:00,
2013-05-13 12:02:00,54.5,30.0,30.00,SW,235,2.0,15.0,39,0.01,,,0.01,weatherlink.com 1.10,2013-05-13 16:02:00,
2013-05-13 12:17:00,54.7,30.0,30.00,NW,314,5.0,18.0,39,0.01,,,0.01,weatherlink.com 1.10,2013-05-13 16:17:00,
2013-05-13 12:32:00,55.6,31.0,29.99,West,263,4.0,10.0,40,0.00,,,0.01,weatherlink.com 1.10,2013-05-13 16:32:00,
2013-05-13 12:47:00,55.0,30.0,29.99,West,280,0.0,11.0,38,0.00,,,0.01,weatherlink.com 1.10,2013-05-13 16:47:00,
2013-05-13 13:02:00,54.5,30.0,30.00,NNW,346,2.0,16.0,39,0.00,,,0.01,weatherlink.com 1.10,2013-05-13 17:02:00,
2013-05-13 13:17:00,54.5,32.0,29.99,WSW,249,1.0,10.0,42,0.00,,,0.01,weatherlink.com 1.10,2013-05-13 17:17:00,
2013-05-13 13:32:00,54.1,29.0,29.99,WSW,247,5.0,12.0,38,0.00,,,0.01,weatherlink.com 1.10,2013-05-13 17:32:00,
2013-05-13 13:47:00,54.7,29.0,29.99,West,281,4.0,14.0,37,0.00,,,0.01,weatherlink.com 1.10,2013-05-13 17:47:00,
2013-05-13 14:02:00,54.7,30.0,29.98,SW,236,2.0,9.0,39,0.00,,,0.01,weatherlink.com 1.10,2013-05-13 18:02:00,
2013-05-13 14:17:00,55.4,29.0,29.98,WSW,244,4.0,11.0,36,0.00,,,0.01,weatherlink.com 1.10,2013-05-13 18:17:00,
2013-05-13 14:32:00,54.5,28.0,29.98,SW,232,0.0,10.0,37,0.00,,,0.01,weatherlink.com 1.10,2013-05-13 18:32:00,
2013-05-13 14:47:00,55.6,29.0,29.98,West,262,4.0,15.0,36,0.00,,,0.01,weatherlink.com 1.10,2013-05-13 18:47:00,
2013-05-13 15:02:00,55.1,28.0,29.98,West,259,8.0,13.0,36,0.00,,,0.01,weatherlink.com 1.10,2013-05-13 19:02:00,
2013-05-13 15:17:00,54.8,30.0,29.97,WNW,296,2.0,12.0,39,0.00,,,0.01,weatherlink.com 1.10,2013-05-13 19:17:00,
2013-05-13 15:32:00,55.0,30.0,29.97,SSW,200,2.0,10.0,39,0.00,,,0.01,weatherlink.com 1.10,2013-05-13 19:32:00,
2013-05-13 15:47:00,55.4,29.0,29.97,NW,313,1.0,14.0,37,0.00,,,0.01,weatherlink.com 1.10,2013-05-13 19:47:00,
2013-05-13 16:02:00,55.4,30.0,29.97,WNW,298,3.0,9.0,38,0.00,,,0.01,weatherlink.com 1.10,2013-05-13 20:02:00,
2013-05-13 16:17:00,55.2,29.0,29.97,SSW,213,2.0,11.0,37,0.00,,,0.01,weatherlink.com 1.10,2013-05-13 20:17:00,
2013-05-13 16:32:00,55.4,29.0,29.97,NW,323,2.0,10.0,36,0.00,,,0.01,weatherlink.com 1.10,2013-05-13 20:32:00,
2013-05-13 16:47:00,54.9,28.0,29.97,WSW,257,2.0,11.0,35,0.00,,,0.01,weatherlink.com 1.10,2013-05-13 20:47:00,
2013-05-13 17:02:00,55.1,27.0,29.96,WNW,282,1.0,7.0,34,0.00,,,0.01,weatherlink.com 1.10,2013-05-13 21:02:00,
2013-05-13 17:17:00,54.9,29.0,29.96,WNW,298,4.0,6.0,37,0.00,,,0.01,weatherlink.com 1.10,2013-05-13 21:17:00,
2013-05-13 17:32:00,55.4,29.0,29.96,WSW,246,4.0,8.0,37,0.00,,,0.01,weatherlink.com 1.10,2013-05-13 21:32:00,
2013-05-13 17:47:00,55.6,31.0,29.96,NNW,330,0.0,10.0,39,0.00,,,0.01,weatherlink.com 1.10,2013-05-13 21:47:00,
2013-05-13 18:02:00,55.7,29.0,29.96,WSW,247,2.0,8.0,36,0.00,,,0.01,weatherlink.com 1.10,2013-05-13 22:02:00,
2013-05-13 18:17:00,55.1,28.0,29.96,North,360,4.0,10.0,36,0.00,,,0.01,weatherlink.com 1.10,2013-05-13 22:17:00,
2013-05-13 18:32:00,54.0,27.0,29.96,NNW,338,2.0,8.0,35,0.00,,,0.01,weatherlink.com 1.10,2013-05-13 22:32:00,
2013-05-13 18:47:00,53.6,27.0,29.96,NNW,331,1.0,7.0,36,0.00,,,0.01,weatherlink.com 1.10,2013-05-13 22:47:00,
2013-05-13 19:02:00,53.5,28.0,29.97,WSW,251,2.0,5.0,37,0.00,,,0.01,weatherlink.com 1.10,2013-05-13 23:02:00,
2013-05-13 19:17:00,53.0,28.0,29.97,West,261,4.0,5.0,39,0.00,,,0.01,weatherlink.com 1.10,2013-05-13 23:17:00,
2013-05-13 19:32:00,52.6,29.0,29.98,NNW,329,2.0,3.0,41,0.00,,,0.01,weatherlink.com 1.10,2013-05-13 23:32:00,
2013-05-13 19:47:00,51.8,29.0,29.99,NNW,336,1.0,4.0,42,0.00,,,0.01,weatherlink.com 1.10,2013-05-13 23:47:00,
2013-05-13 20:02:00,51.0,31.0,30.00,NW,311,1.0,5.0,46,0.00,,,0.01,weatherlink.com 1.10,2013-05-14 00:02:00,
2013-05-13 20:17:00,50.3,31.0,30.00,NW,321,1.0,5.0,48,0.00,,,0.01,weatherlink.com 1.10,2013-05-14 00:17:00,
2013-05-13 20:32:00,49.7,32.0,30.01,West,269,0.0,3.0,50,0.00,,,0.01,weatherlink.com 1.10,2013-05-14 00:32:00,
2013-05-13 20:47:00,49.0,31.0,30.02,WNW,284,1.0,4.0,51,0.00,,,0.01,weatherlink.com 1.10,2013-05-14 00:47:00,
2013-05-13 21:02:00,48.3,32.0,30.02,NNW,339,0.0,6.0,53,0.00,,,0.01,weatherlink.com 1.10,2013-05-14 01:02:00,
2013-05-13 21:17:00,47.9,32.0,30.03,NNW,339,0.0,1.0,54,0.00,,,0.01,weatherlink.com 1.10,2013-05-14 01:17:00,
2013-05-13 21:32:00,47.5,32.0,30.04,WNW,295,0.0,5.0,55,0.00,,,0.01,weatherlink.com 1.10,2013-05-14 01:32:00,
2013-05-13 21:47:00,46.9,32.0,30.05,WNW,294,0.0,1.0,57,0.00,,,0.01,weatherlink.com 1.10,2013-05-14 01:47:00,
2013-05-13 22:03:00,46.2,32.0,30.05,WNW,292,0.0,4.0,57,0.00,,,0.01,weatherlink.com 1.10,2013-05-14 02:03:00,
2013-05-13 22:17:00,45.9,33.0,30.06,WNW,294,0.0,4.0,60,0.00,,,0.01,weatherlink.com 1.10,2013-05-14 02:17:00,
2013-05-13 22:32:00,45.7,33.0,30.06,WSW,249,0.0,2.0,61,0.00,,,0.01,weatherlink.com 1.10,2013-05-14 02:32:00,
2013-05-13 22:47:00,45.4,33.0,30.06,NW,304,0.0,3.0,62,0.00,,,0.01,weatherlink.com 1.10,2013-05-14 02:47:00,
2013-05-13 23:03:00,45.2,34.0,30.06,North,349,0.0,2.0,64,0.00,,,0.01,weatherlink.com 1.10,2013-05-14 03:03:00,
2013-05-13 23:18:00,44.9,34.0,30.06,NW,304,0.0,2.0,65,0.00,,,0.01,weatherlink.com 1.10,2013-05-14 03:18:00,
2013-05-13 23:33:00,44.6,34.0,30.06,WNW,292,0.0,2.0,66,0.00,,,0.01,weatherlink.com 1.10,2013-05-14 03:33:00,
2013-05-13 23:48:00,44.4,34.0,30.07,West,281,0.0,2.0,67,0.00,,,0.01,weatherlink.com 1.10,2013-05-14 03:48:00,